Time;durP1;ratioP1;P1;durP2;ratioP2;P2;SDS_P1;SDS_P2;PMS_P1;PMS_P2;Temp;Humidity;BMP_temperature;BMP_pressure;BME280_temperature;BME280_humidity;BME280_pressure;Samples;Min_cycle;Max_cycle;Signal;HPM_P1;HPM_P2
2021/12/14 00:01:22;;;;;;;158.10;75.80;;;;;;;;;;728002;189;919450;-69
2021/12/14 00:03:48;;;;;;;158.03;77.57;;;;;;;;;;729664;189;918667;-68
2021/12/14 00:06:14;;;;;;;167.03;70.77;;;;;;;;;;717918;193;920500;-69
2021/12/14 00:08:52;;;;;;;166.73;74.93;;;;;;;;;;725014;189;915793;-69
2021/12/14 00:14:15;;;;;;;152.93;73.63;;;;;;;;;;736224;191;635777;-67
2021/12/14 00:16:25;;;;;;;162.57;75.03;;;;;;;;;;735070;192;617208;-69
2021/12/14 00:18:51;;;;;;;144.73;71.50;;;;;;;;;;730041;189;617229;-68
2021/12/14 00:21:20;;;;;;;154.33;73.50;;;;;;;;;;718124;189;919511;-68
2021/12/14 00:26:14;;;;;;;177.13;80.90;;;;;;;;;;730509;189;919442;-69
2021/12/14 00:28:40;;;;;;;143.00;69.37;;;;;;;;;;720840;189;919398;-69
2021/12/14 00:31:09;;;;;;;151.75;71.05;;;;;;;;;;729059;189;920172;-68
2021/12/14 00:33:33;;;;;;;149.97;70.83;;;;;;;;;;726574;189;919654;-69
2021/12/14 00:35:59;;;;;;;144.53;68.50;;;;;;;;;;735202;189;919381;-70
2021/12/14 00:38:24;;;;;;;143.20;72.80;;;;;;;;;;727538;189;919233;-69
2021/12/14 00:40:59;;;;;;;147.27;70.37;;;;;;;;;;724843;190;919308;-69
2021/12/14 00:43:25;;;;;;;162.13;73.63;;;;;;;;;;723869;189;919574;-68
2021/12/14 00:45:51;;;;;;;161.10;72.40;;;;;;;;;;734449;189;918736;-68
2021/12/14 00:48:17;;;;;;;163.00;76.40;;;;;;;;;;733773;189;918785;-69
2021/12/14 00:50:43;;;;;;;182.60;79.00;;;;;;;;;;739425;189;921481;-69
2021/12/14 00:53:09;;;;;;;177.67;74.13;;;;;;;;;;721338;190;920180;-69
2021/12/14 00:55:36;;;;;;;155.60;70.03;;;;;;;;;;717658;193;919170;-69
2021/12/14 00:58:01;;;;;;;148.30;72.93;;;;;;;;;;737280;189;919993;-68
2021/12/14 01:00:27;;;;;;;147.07;69.10;;;;;;;;;;735567;189;919216;-68
2021/12/14 01:02:53;;;;;;;141.27;70.82;;;;;;;;;;721053;189;1021441;-68
2021/12/14 01:05:19;;;;;;;160.27;72.03;;;;;;;;;;722736;190;914331;-68
2021/12/14 01:07:45;;;;;;;154.80;65.70;;;;;;;;;;731222;189;915610;-68
2021/12/14 01:10:14;;;;;;;135.43;68.20;;;;;;;;;;716759;189;916255;-68
2021/12/14 01:12:48;;;;;;;174.97;74.60;;;;;;;;;;724210;189;1157774;-68
2021/12/14 01:15:25;;;;;;;161.23;78.90;;;;;;;;;;729088;189;919060;-69
2021/12/14 01:17:53;;;;;;;157.43;75.20;;;;;;;;;;730306;190;919083;-69
2021/12/14 01:20:07;;;;;;;143.70;71.57;;;;;;;;;;717478;190;919312;-68
2021/12/14 01:22:41;;;;;;;144.40;71.50;;;;;;;;;;717509;190;919067;-68
2021/12/14 01:25:02;;;;;;;141.13;71.07;;;;;;;;;;723804;190;919133;-68
2021/12/14 01:27:26;;;;;;;172.63;73.17;;;;;;;;;;724667;190;929840;-68
2021/12/14 01:29:53;;;;;;;148.30;71.10;;;;;;;;;;718083;189;919010;-69
2021/12/14 01:32:17;;;;;;;178.60;72.53;;;;;;;;;;741556;186;919628;-68
2021/12/14 01:34:43;;;;;;;150.43;74.33;;;;;;;;;;725989;189;920390;-68
2021/12/14 01:37:10;;;;;;;162.67;71.83;;;;;;;;;;717559;189;919417;-68
2021/12/14 01:42:17;;;;;;;156.33;72.73;;;;;;;;;;740534;189;917532;-68
2021/12/14 01:44:47;;;;;;;166.13;74.30;;;;;;;;;;722945;193;918649;-68
2021/12/14 01:47:14;;;;;;;145.95;69.95;;;;;;;;;;736992;189;919018;-68
2021/12/14 01:49:40;;;;;;;156.03;75.07;;;;;;;;;;723130;189;943607;-68
2021/12/14 01:52:07;;;;;;;154.50;72.70;;;;;;;;;;738531;186;920806;-67
2021/12/14 01:54:33;;;;;;;181.37;72.72;;;;;;;;;;733993;189;920748;-69
2021/12/14 01:56:58;;;;;;;186.03;74.67;;;;;;;;;;732428;189;921519;-68
2021/12/14 01:59:27;;;;;;;188.07;72.97;;;;;;;;;;732777;190;920417;-68
2021/12/14 02:01:57;;;;;;;193.73;81.67;;;;;;;;;;734924;189;919991;-68
2021/12/14 02:04:19;;;;;;;164.57;73.47;;;;;;;;;;733307;189;929030;-68
2021/12/14 02:06:45;;;;;;;151.67;69.93;;;;;;;;;;729842;190;915854;-68
2021/12/14 02:09:10;;;;;;;167.63;73.17;;;;;;;;;;734742;189;915785;-68
2021/12/14 02:11:36;;;;;;;168.37;75.70;;;;;;;;;;735776;186;914734;-68
2021/12/14 02:14:02;;;;;;;180.17;70.03;;;;;;;;;;725207;189;1021697;-68
2021/12/14 02:16:28;;;;;;;178.13;72.70;;;;;;;;;;729120;189;1021932;-68
2021/12/14 02:18:54;;;;;;;176.40;78.07;;;;;;;;;;715416;189;1444994;-68
2021/12/14 02:21:20;;;;;;;177.53;72.60;;;;;;;;;;732725;189;919497;-68
2021/12/14 02:23:46;;;;;;;181.93;74.00;;;;;;;;;;730087;190;919427;-68
2021/12/14 02:26:11;;;;;;;185.88;71.68;;;;;;;;;;734092;187;919134;-68
2021/12/14 02:28:37;;;;;;;181.17;76.40;;;;;;;;;;726945;190;918616;-68
2021/12/14 02:31:03;;;;;;;189.73;73.87;;;;;;;;;;732400;189;1021888;-68
2021/12/14 02:33:29;;;;;;;193.27;79.37;;;;;;;;;;731544;192;919769;-67
2021/12/14 02:35:55;;;;;;;174.00;76.77;;;;;;;;;;717787;190;919442;-68
2021/12/14 02:38:21;;;;;;;184.33;72.30;;;;;;;;;;724926;189;919404;-67
2021/12/14 02:40:53;;;;;;;183.27;76.00;;;;;;;;;;737598;188;919292;-68
2021/12/14 02:43:22;;;;;;;222.50;78.63;;;;;;;;;;737892;189;919695;-67
2021/12/14 02:45:48;;;;;;;198.43;68.87;;;;;;;;;;724135;189;919804;-68
2021/12/14 02:48:13;;;;;;;172.30;66.43;;;;;;;;;;720683;190;919982;-67
2021/12/14 02:50:39;;;;;;;211.57;73.07;;;;;;;;;;728614;189;918548;-68
2021/12/14 02:53:05;;;;;;;181.57;74.00;;;;;;;;;;733783;189;918836;-67
2021/12/14 02:55:31;;;;;;;145.40;67.95;;;;;;;;;;717460;193;1124072;-67
2021/12/14 02:57:57;;;;;;;202.50;74.55;;;;;;;;;;724012;193;919263;-67
2021/12/14 03:00:23;;;;;;;211.57;72.40;;;;;;;;;;732117;189;919432;-68
2021/12/14 03:02:48;;;;;;;195.53;75.77;;;;;;;;;;720971;189;919249;-67
2021/12/14 03:05:15;;;;;;;166.43;72.30;;;;;;;;;;726963;189;919211;-68
2021/12/14 03:07:43;;;;;;;178.93;73.90;;;;;;;;;;731614;189;918807;-68
2021/12/14 03:12:39;;;;;;;187.23;71.55;;;;;;;;;;722759;190;918962;-67
2021/12/14 03:15:08;;;;;;;191.93;74.93;;;;;;;;;;736094;189;918529;-67
2021/12/14 03:17:33;;;;;;;169.60;69.27;;;;;;;;;;729814;189;888501;-67
2021/12/14 03:19:59;;;;;;;184.67;73.07;;;;;;;;;;720506;189;919550;-66
2021/12/14 03:22:28;;;;;;;167.67;67.33;;;;;;;;;;719291;189;1021346;-67
2021/12/14 03:24:55;;;;;;;167.60;69.60;;;;;;;;;;725590;190;919523;-67
2021/12/14 03:27:20;;;;;;;183.80;66.83;;;;;;;;;;718359;190;918554;-67
2021/12/14 03:29:46;;;;;;;171.37;66.32;;;;;;;;;;723540;189;919755;-67
2021/12/14 03:32:11;;;;;;;232.67;77.20;;;;;;;;;;732396;189;915439;-67
2021/12/14 03:34:37;;;;;;;208.00;73.97;;;;;;;;;;727743;189;919677;-67
2021/12/14 03:37:04;;;;;;;231.40;80.50;;;;;;;;;;731904;189;1021305;-67
2021/12/14 03:39:34;;;;;;;248.75;81.35;;;;;;;;;;729819;189;919231;-65
2021/12/14 03:41:59;;;;;;;194.87;77.17;;;;;;;;;;723956;189;918936;-67
2021/12/14 03:44:25;;;;;;;196.73;76.77;;;;;;;;;;729169;189;919129;-66
2021/12/14 03:46:51;;;;;;;200.17;72.67;;;;;;;;;;719629;189;972779;-67
2021/12/14 03:49:17;;;;;;;189.03;74.30;;;;;;;;;;729984;190;918550;-66
2021/12/14 03:51:43;;;;;;;215.60;79.90;;;;;;;;;;727161;192;627206;-68
2021/12/14 03:54:09;;;;;;;201.30;72.47;;;;;;;;;;723443;189;626291;-67
2021/12/14 03:56:35;;;;;;;175.47;70.87;;;;;;;;;;735386;189;624101;-67
2021/12/14 03:59:00;;;;;;;177.68;73.47;;;;;;;;;;729438;189;911050;-66
2021/12/14 04:01:27;;;;;;;160.63;69.40;;;;;;;;;;727098;189;915222;-67
2021/12/14 04:03:53;;;;;;;206.17;76.23;;;;;;;;;;725950;189;953736;-66
2021/12/14 04:06:19;;;;;;;177.83;70.63;;;;;;;;;;729321;189;930662;-67
2021/12/14 04:08:45;;;;;;;203.13;75.63;;;;;;;;;;730898;189;642305;-67
2021/12/14 04:11:10;;;;;;;194.83;72.30;;;;;;;;;;720398;189;919674;-67
2021/12/14 04:13:36;;;;;;;241.73;84.00;;;;;;;;;;728027;190;919437;-67
2021/12/14 04:16:02;;;;;;;196.57;73.30;;;;;;;;;;717788;190;919436;-66
2021/12/14 04:18:28;;;;;;;214.27;71.13;;;;;;;;;;720548;191;918132;-66
2021/12/14 04:20:55;;;;;;;200.47;69.87;;;;;;;;;;735190;189;919501;-66
2021/12/14 04:23:20;;;;;;;187.73;75.07;;;;;;;;;;724030;190;919173;-66
2021/12/14 04:25:46;;;;;;;192.20;70.70;;;;;;;;;;727357;189;919747;-66
2021/12/14 04:28:11;;;;;;;222.63;70.47;;;;;;;;;;727367;190;919399;-65
2021/12/14 04:30:37;;;;;;;192.70;67.32;;;;;;;;;;725958;189;919176;-66
2021/12/14 04:33:03;;;;;;;198.53;72.50;;;;;;;;;;716138;193;920016;-65
2021/12/14 04:35:33;;;;;;;212.93;74.47;;;;;;;;;;719750;192;919523;-65
2021/12/14 04:38:06;;;;;;;213.00;74.67;;;;;;;;;;703685;198;919664;-65
2021/12/14 04:40:37;;;;;;;225.33;72.10;;;;;;;;;;711907;193;918641;-66
2021/12/14 04:53:02;;;;;;;230.53;76.07;;;;;;;;;;726040;189;919250;-65
2021/12/14 04:55:28;;;;;;;252.63;81.40;;;;;;;;;;723414;189;919110;-66
2021/12/14 04:57:54;;;;;;;223.07;78.10;;;;;;;;;;730426;189;919558;-67
2021/12/14 05:00:22;;;;;;;209.30;75.20;;;;;;;;;;728547;189;921118;-67
2021/12/14 05:02:48;;;;;;;196.13;75.37;;;;;;;;;;725668;189;919032;-67
2021/12/14 05:05:16;;;;;;;199.60;70.03;;;;;;;;;;726043;189;919102;-67
2021/12/14 05:07:49;;;;;;;222.50;72.93;;;;;;;;;;729810;189;919990;-66
2021/12/14 05:10:10;;;;;;;245.30;74.27;;;;;;;;;;723884;189;920078;-66
2021/12/14 05:12:36;;;;;;;196.50;74.87;;;;;;;;;;726702;188;924291;-66
2021/12/14 05:15:03;;;;;;;179.33;71.43;;;;;;;;;;735187;189;981469;-66
2021/12/14 05:17:30;;;;;;;160.23;66.47;;;;;;;;;;724116;187;919206;-66
2021/12/14 05:19:56;;;;;;;185.30;69.28;;;;;;;;;;729034;189;931089;-67
2021/12/14 05:22:22;;;;;;;185.40;72.00;;;;;;;;;;725877;189;919375;-66
2021/12/14 05:24:48;;;;;;;177.50;68.80;;;;;;;;;;734979;189;926255;-67
2021/12/14 05:27:13;;;;;;;146.00;64.23;;;;;;;;;;729109;189;920217;-66
2021/12/14 05:29:40;;;;;;;118.50;47.83;;;;;;;;;;721408;189;918010;-66
2021/12/14 05:32:06;;;;;;;138.83;47.00;;;;;;;;;;728609;189;918009;-67
2021/12/14 05:34:32;;;;;;;126.10;50.37;;;;;;;;;;731887;189;1021598;-66
2021/12/14 05:36:59;;;;;;;123.73;46.93;;;;;;;;;;730902;189;918691;-66
2021/12/14 05:39:43;;;;;;;142.60;50.43;;;;;;;;;;729952;191;618463;-66
2021/12/14 05:44:21;;;;;;;207.40;56.37;;;;;;;;;;726618;189;914185;-66
2021/12/14 05:46:50;;;;;;;155.77;53.47;;;;;;;;;;726431;189;916732;-66
2021/12/14 05:49:15;;;;;;;217.27;61.55;;;;;;;;;;727761;189;919755;-67
2021/12/14 05:51:41;;;;;;;207.80;69.23;;;;;;;;;;733113;186;921489;-66
2021/12/14 05:54:07;;;;;;;184.73;56.90;;;;;;;;;;725272;189;910470;-66
2021/12/14 05:56:33;;;;;;;288.40;76.07;;;;;;;;;;727229;189;635939;-67
2021/12/14 05:58:59;;;;;;;227.10;64.63;;;;;;;;;;741649;189;630964;-66
2021/12/14 06:01:25;;;;;;;219.07;76.70;;;;;;;;;;717155;193;618062;-67
2021/12/14 06:03:50;;;;;;;198.60;70.00;;;;;;;;;;722340;192;918320;-66
2021/12/14 06:06:16;;;;;;;198.90;73.63;;;;;;;;;;728208;189;916150;-66
2021/12/14 06:08:42;;;;;;;221.90;70.53;;;;;;;;;;729906;189;919309;-65
2021/12/14 06:11:09;;;;;;;190.47;72.83;;;;;;;;;;721495;190;919759;-65
2021/12/14 06:13:41;;;;;;;211.70;75.10;;;;;;;;;;734296;189;919809;-66
2021/12/14 06:16:06;;;;;;;226.23;78.90;;;;;;;;;;733823;189;918691;-67
2021/12/14 06:18:31;;;;;;;230.03;79.20;;;;;;;;;;732090;189;1021135;-67
2021/12/14 06:20:57;;;;;;;199.10;68.60;;;;;;;;;;720951;191;919146;-66
2021/12/14 06:23:23;;;;;;;200.23;74.63;;;;;;;;;;727485;189;919250;-65
2021/12/14 06:25:49;;;;;;;250.40;84.53;;;;;;;;;;726314;189;919318;-67
2021/12/14 06:28:21;;;;;;;308.35;92.80;;;;;;;;;;729161;189;919560;-66
2021/12/14 06:30:47;;;;;;;268.35;85.07;;;;;;;;;;721444;189;1127122;-66
2021/12/14 06:33:13;;;;;;;217.10;84.17;;;;;;;;;;738306;189;919515;-66
2021/12/14 06:35:40;;;;;;;254.17;79.10;;;;;;;;;;734241;189;919800;-67
2021/12/14 06:38:10;;;;;;;336.37;97.20;;;;;;;;;;726781;190;919975;-67
2021/12/14 06:40:32;;;;;;;393.17;99.03;;;;;;;;;;727085;190;919741;-67
2021/12/14 06:42:58;;;;;;;351.13;86.23;;;;;;;;;;724218;192;919132;-67
2021/12/14 06:45:25;;;;;;;350.10;85.43;;;;;;;;;;723292;192;919402;-66
2021/12/14 06:47:50;;;;;;;344.70;86.70;;;;;;;;;;723029;190;918652;-66
2021/12/14 06:50:16;;;;;;;214.57;70.83;;;;;;;;;;726612;189;919930;-67
2021/12/14 06:52:42;;;;;;;215.37;71.63;;;;;;;;;;719700;189;919557;-66
2021/12/14 06:55:08;;;;;;;289.10;80.87;;;;;;;;;;730291;189;920179;-67
2021/12/14 06:57:34;;;;;;;241.97;72.17;;;;;;;;;;728719;192;918067;-67
2021/12/14 07:00:00;;;;;;;432.52;95.47;;;;;;;;;;729116;189;919198;-67
2021/12/14 07:02:26;;;;;;;463.53;98.33;;;;;;;;;;721085;189;919770;-67
2021/12/14 07:04:51;;;;;;;432.73;94.77;;;;;;;;;;729337;189;919039;-67
2021/12/14 07:07:17;;;;;;;362.85;97.00;;;;;;;;;;721162;190;917690;-67
2021/12/14 07:09:44;;;;;;;449.13;112.30;;;;;;;;;;717316;190;919280;-67
2021/12/14 07:12:10;;;;;;;390.70;91.00;;;;;;;;;;733278;190;918936;-67
2021/12/14 07:14:37;;;;;;;357.57;92.10;;;;;;;;;;730456;189;918997;-66
2021/12/14 07:17:12;;;;;;;508.40;109.87;;;;;;;;;;720538;189;920639;-67
2021/12/14 07:19:38;;;;;;;470.03;99.33;;;;;;;;;;724710;190;954749;-67
2021/12/14 07:22:04;;;;;;;401.50;95.57;;;;;;;;;;731517;189;919274;-68
2021/12/14 07:24:30;;;;;;;483.47;95.83;;;;;;;;;;726261;189;1020395;-68
2021/12/14 07:27:14;;;;;;;334.37;75.60;;;;;;;;;;727848;186;918780;-68
2021/12/14 07:29:39;;;;;;;410.03;78.63;;;;;;;;;;720897;189;918931;-67
2021/12/14 07:32:05;;;;;;;313.53;76.47;;;;;;;;;;728003;189;920369;-67
2021/12/14 07:34:31;;;;;;;353.40;74.30;;;;;;;;;;731101;189;919746;-67
2021/12/14 07:36:57;;;;;;;370.50;80.00;;;;;;;;;;735866;189;921331;-65
2021/12/14 07:39:23;;;;;;;343.23;77.57;;;;;;;;;;721788;189;919452;-66
2021/12/14 07:41:50;;;;;;;360.30;74.07;;;;;;;;;;727194;189;1020583;-68
2021/12/14 07:44:16;;;;;;;313.37;76.00;;;;;;;;;;723591;189;920331;-67
2021/12/14 07:46:42;;;;;;;265.57;65.77;;;;;;;;;;723989;189;906042;-66
2021/12/14 07:49:08;;;;;;;221.13;69.50;;;;;;;;;;732372;189;916212;-67
2021/12/14 07:51:34;;;;;;;233.23;68.23;;;;;;;;;;730508;189;919594;-67
2021/12/14 07:54:01;;;;;;;227.33;63.83;;;;;;;;;;730813;189;918755;-68
2021/12/14 07:56:27;;;;;;;229.27;66.57;;;;;;;;;;732169;189;919994;-67
2021/12/14 07:58:54;;;;;;;227.60;58.00;;;;;;;;;;727004;191;919984;-68
2021/12/14 08:01:18;;;;;;;213.90;60.50;;;;;;;;;;719481;190;919890;-68
2021/12/14 08:03:44;;;;;;;218.97;58.60;;;;;;;;;;727266;189;919668;-68
2021/12/14 08:06:10;;;;;;;195.40;53.37;;;;;;;;;;723783;189;918890;-68
2021/12/14 08:11:27;;;;;;;209.87;50.10;;;;;;;;;;722370;190;918519;-68
2021/12/14 08:13:34;;;;;;;289.77;57.60;;;;;;;;;;720680;192;993995;-68
2021/12/14 08:16:00;;;;;;;231.20;51.77;;;;;;;;;;722597;189;921235;-68
2021/12/14 08:18:27;;;;;;;239.47;49.40;;;;;;;;;;728098;189;919745;-68
2021/12/14 08:20:53;;;;;;;181.47;46.70;;;;;;;;;;727332;189;1020866;-68
2021/12/14 08:23:19;;;;;;;215.93;53.90;;;;;;;;;;723813;192;919343;-68
2021/12/14 08:25:45;;;;;;;253.00;49.70;;;;;;;;;;726345;189;919652;-68
2021/12/14 08:28:11;;;;;;;258.70;51.60;;;;;;;;;;725396;190;919038;-68
2021/12/14 08:30:37;;;;;;;264.45;52.53;;;;;;;;;;723905;189;919649;-68
2021/12/14 08:33:03;;;;;;;181.40;50.90;;;;;;;;;;723603;190;919076;-67
2021/12/14 08:35:29;;;;;;;181.13;50.17;;;;;;;;;;723355;189;919491;-67
2021/12/14 08:37:58;;;;;;;182.47;49.10;;;;;;;;;;723030;189;1000801;-68
2021/12/14 08:40:21;;;;;;;197.63;55.93;;;;;;;;;;741370;186;919734;-68
2021/12/14 08:42:52;;;;;;;150.13;48.70;;;;;;;;;;725232;189;970637;-69
2021/12/14 08:47:44;;;;;;;168.80;50.27;;;;;;;;;;729514;189;919386;-70
2021/12/14 08:50:10;;;;;;;217.03;60.17;;;;;;;;;;720574;189;918998;-70
2021/12/14 08:52:36;;;;;;;180.20;52.17;;;;;;;;;;719858;189;919077;-70
2021/12/14 08:55:03;;;;;;;190.60;53.43;;;;;;;;;;721690;191;920513;-69
2021/12/14 08:57:28;;;;;;;167.27;53.43;;;;;;;;;;745472;187;616813;-69
2021/12/14 08:59:54;;;;;;;167.23;53.30;;;;;;;;;;727570;189;919649;-70
2021/12/14 09:02:20;;;;;;;153.97;50.83;;;;;;;;;;723656;192;920847;-70
2021/12/14 09:04:47;;;;;;;135.47;45.57;;;;;;;;;;732649;190;881392;-70
2021/12/14 09:07:13;;;;;;;159.87;51.63;;;;;;;;;;734797;189;917151;-71
2021/12/14 09:09:39;;;;;;;156.00;54.03;;;;;;;;;;722745;189;636244;-71
2021/12/14 09:12:14;;;;;;;161.60;51.80;;;;;;;;;;733656;189;706124;-71
2021/12/14 09:14:40;;;;;;;140.30;48.13;;;;;;;;;;734569;189;623255;-71
2021/12/14 09:17:06;;;;;;;140.30;47.13;;;;;;;;;;736126;189;634956;-70
2021/12/14 09:19:33;;;;;;;145.30;48.87;;;;;;;;;;720550;190;919128;-70
2021/12/14 09:21:58;;;;;;;149.57;49.43;;;;;;;;;;727590;189;918092;-71
2021/12/14 09:24:24;;;;;;;167.70;51.80;;;;;;;;;;731807;189;919356;-71
2021/12/14 09:26:50;;;;;;;164.17;52.17;;;;;;;;;;731617;189;979680;-71
2021/12/14 09:29:16;;;;;;;200.27;54.20;;;;;;;;;;730434;189;918626;-70
2021/12/14 09:31:42;;;;;;;205.30;56.87;;;;;;;;;;731536;189;919525;-71
2021/12/14 09:34:08;;;;;;;228.57;59.40;;;;;;;;;;729599;189;919536;-72
2021/12/14 09:36:34;;;;;;;197.97;61.17;;;;;;;;;;729130;189;919710;-71
2021/12/14 09:39:00;;;;;;;191.12;59.30;;;;;;;;;;738297;189;923763;-72
2021/12/14 09:41:26;;;;;;;226.30;67.27;;;;;;;;;;725530;189;918763;-72
2021/12/14 09:43:52;;;;;;;186.37;60.43;;;;;;;;;;731047;189;919712;-72
2021/12/14 09:46:17;;;;;;;199.23;58.97;;;;;;;;;;725026;189;918928;-72
2021/12/14 09:48:45;;;;;;;215.87;53.23;;;;;;;;;;730800;189;1021349;-74
2021/12/14 09:51:11;;;;;;;255.33;66.37;;;;;;;;;;732106;187;919964;-74
2021/12/14 09:53:37;;;;;;;226.95;59.50;;;;;;;;;;724269;189;920338;-73
2021/12/14 09:56:03;;;;;;;188.43;56.17;;;;;;;;;;739831;186;921331;-73
2021/12/14 09:58:29;;;;;;;194.10;55.90;;;;;;;;;;719195;189;917369;-73
2021/12/14 10:00:55;;;;;;;125.30;45.20;;;;;;;;;;728647;189;1022701;-73
2021/12/14 10:03:20;;;;;;;184.53;52.10;;;;;;;;;;739288;189;920635;-74
2021/12/14 10:05:48;;;;;;;222.73;60.23;;;;;;;;;;719540;189;949725;-74
2021/12/14 10:08:15;;;;;;;214.10;62.70;;;;;;;;;;720065;189;1003142;-76
2021/12/14 10:10:41;;;;;;;215.53;67.13;;;;;;;;;;721865;192;919756;-75
2021/12/14 10:13:06;;;;;;;213.10;63.13;;;;;;;;;;724681;189;919640;-72
2021/12/14 10:15:33;;;;;;;237.20;62.83;;;;;;;;;;722557;189;928299;-73
2021/12/14 10:17:59;;;;;;;232.30;64.63;;;;;;;;;;729868;189;920320;-73
2021/12/14 10:20:25;;;;;;;233.20;63.00;;;;;;;;;;723358;190;919190;-73
2021/12/14 10:22:52;;;;;;;233.90;64.33;;;;;;;;;;729297;189;919199;-73
2021/12/14 10:25:17;;;;;;;227.87;63.63;;;;;;;;;;731325;189;919305;-74
2021/12/14 10:27:43;;;;;;;219.80;60.97;;;;;;;;;;738897;189;987279;-75
2021/12/14 10:30:10;;;;;;;186.70;55.00;;;;;;;;;;726453;189;1020677;-74
2021/12/14 10:32:36;;;;;;;170.73;50.83;;;;;;;;;;729138;189;918802;-75
2021/12/14 10:35:02;;;;;;;208.53;54.80;;;;;;;;;;723079;190;1225979;-74
2021/12/14 10:37:37;;;;;;;199.13;55.70;;;;;;;;;;724952;190;948907;-76
2021/12/14 10:44:57;;;;;;;284.00;67.67;;;;;;;;;;722234;189;919360;-76
2021/12/14 10:47:23;;;;;;;261.97;64.50;;;;;;;;;;722945;190;919614;-75
2021/12/14 10:49:48;;;;;;;256.25;63.45;;;;;;;;;;734188;189;1019271;-75
2021/12/14 10:52:14;;;;;;;227.40;68.33;;;;;;;;;;732511;189;919046;-74
2021/12/14 10:54:40;;;;;;;206.07;65.97;;;;;;;;;;724681;190;918421;-75
2021/12/14 10:57:06;;;;;;;222.87;63.53;;;;;;;;;;719759;189;918692;-76
2021/12/14 10:59:32;;;;;;;269.40;67.73;;;;;;;;;;721713;189;919399;-66
2021/12/14 11:01:58;;;;;;;261.07;70.30;;;;;;;;;;740511;188;918937;-67
2021/12/14 11:04:33;;;;;;;172.93;62.83;;;;;;;;;;734268;189;919721;-67
2021/12/14 11:06:53;;;;;;;203.33;59.93;;;;;;;;;;721881;189;919624;-67
2021/12/14 11:12:03;;;;;;;253.17;68.07;;;;;;;;;;729191;189;944504;-66
2021/12/14 11:14:26;;;;;;;241.47;60.27;;;;;;;;;;713879;193;922670;-67
2021/12/14 11:19:31;;;;;;;227.40;55.80;;;;;;;;;;713489;194;919703;-67
2021/12/14 11:22:03;;;;;;;206.87;54.97;;;;;;;;;;713995;194;918585;-67
2021/12/14 11:24:32;;;;;;;227.43;53.50;;;;;;;;;;732108;189;919828;-69
2021/12/14 11:26:58;;;;;;;194.47;52.87;;;;;;;;;;730259;189;919575;-69
2021/12/14 11:29:24;;;;;;;226.83;52.23;;;;;;;;;;733641;189;916374;-76
2021/12/14 11:31:49;;;;;;;200.33;48.20;;;;;;;;;;735596;189;906525;-63
2021/12/14 11:34:15;;;;;;;332.13;74.60;;;;;;;;;;729001;190;916051;-63
2021/12/14 11:36:46;;;;;;;203.63;51.50;;;;;;;;;;719392;189;919970;-63
2021/12/14 11:39:12;;;;;;;206.60;51.00;;;;;;;;;;720334;190;919182;-63
2021/12/14 11:41:38;;;;;;;166.73;45.97;;;;;;;;;;731100;189;919243;-64
2021/12/14 11:44:05;;;;;;;162.97;46.57;;;;;;;;;;726788;190;919198;-65
2021/12/14 11:46:33;;;;;;;191.07;46.88;;;;;;;;;;723531;190;920316;-64
2021/12/14 11:48:58;;;;;;;192.17;48.97;;;;;;;;;;727407;189;1036957;-65
2021/12/14 11:51:23;;;;;;;258.87;52.93;;;;;;;;;;729339;189;917965;-64
2021/12/14 11:53:50;;;;;;;296.60;53.37;;;;;;;;;;728138;189;919112;-65
2021/12/14 11:56:16;;;;;;;196.63;45.90;;;;;;;;;;722239;190;631112;-64
2021/12/14 11:58:43;;;;;;;229.87;49.27;;;;;;;;;;728150;190;919546;-64
2021/12/14 12:01:09;;;;;;;238.53;47.57;;;;;;;;;;730856;189;920118;-65
2021/12/14 12:03:38;;;;;;;237.03;45.80;;;;;;;;;;725464;189;919506;-65
2021/12/14 12:06:08;;;;;;;217.70;49.47;;;;;;;;;;727237;189;919618;-63
2021/12/14 12:11:02;;;;;;;192.80;41.87;;;;;;;;;;734544;189;633495;-64
2021/12/14 12:13:32;;;;;;;187.87;44.87;;;;;;;;;;721867;189;918814;-64
2021/12/14 12:15:58;;;;;;;231.90;49.10;;;;;;;;;;732541;189;896955;-65
2021/12/14 12:18:24;;;;;;;206.70;51.57;;;;;;;;;;730009;189;918982;-65
2021/12/14 12:20:50;;;;;;;248.00;50.40;;;;;;;;;;729630;186;919431;-65
2021/12/14 12:23:16;;;;;;;171.10;49.93;;;;;;;;;;722807;189;919390;-64
2021/12/14 12:25:43;;;;;;;157.10;43.93;;;;;;;;;;726735;189;685271;-64
2021/12/14 12:28:10;;;;;;;194.60;49.17;;;;;;;;;;709772;193;922708;-64
2021/12/14 12:30:43;;;;;;;159.33;45.00;;;;;;;;;;727266;189;918502;-65
2021/12/14 12:33:08;;;;;;;155.65;44.90;;;;;;;;;;727522;189;917641;-64
2021/12/14 12:35:33;;;;;;;168.27;47.20;;;;;;;;;;730376;189;919443;-64
2021/12/14 12:37:59;;;;;;;273.57;48.37;;;;;;;;;;731649;189;917926;-64
2021/12/14 12:40:46;;;;;;;254.50;53.60;;;;;;;;;;724432;189;918620;-64
2021/12/14 12:43:11;;;;;;;313.57;60.37;;;;;;;;;;727114;190;919300;-64
2021/12/14 12:45:37;;;;;;;245.23;47.40;;;;;;;;;;726088;189;918904;-64
2021/12/14 12:48:04;;;;;;;144.70;44.50;;;;;;;;;;736434;189;918246;-64
2021/12/14 12:50:29;;;;;;;168.23;45.13;;;;;;;;;;723981;190;915855;-64
2021/12/14 12:52:55;;;;;;;173.67;47.30;;;;;;;;;;725726;189;915137;-64
2021/12/14 12:55:30;;;;;;;200.43;51.10;;;;;;;;;;724377;192;915163;-64
2021/12/14 12:57:55;;;;;;;193.45;48.85;;;;;;;;;;721897;189;918401;-64
2021/12/14 13:00:27;;;;;;;233.47;55.70;;;;;;;;;;721510;189;921114;-63
2021/12/14 13:02:54;;;;;;;204.43;52.00;;;;;;;;;;731231;189;919663;-63
2021/12/14 13:05:22;;;;;;;255.67;52.70;;;;;;;;;;727507;191;919847;-63
2021/12/14 13:07:47;;;;;;;295.13;57.10;;;;;;;;;;720047;190;919859;-65
2021/12/14 13:10:15;;;;;;;217.70;57.67;;;;;;;;;;720329;190;918820;-64
2021/12/14 13:12:41;;;;;;;226.13;56.57;;;;;;;;;;723453;189;918896;-65
2021/12/14 13:15:22;;;;;;;231.85;57.13;;;;;;;;;;718021;192;918541;-65
2021/12/14 13:17:48;;;;;;;214.90;56.03;;;;;;;;;;722677;189;919035;-70
2021/12/14 13:20:14;;;;;;;207.57;60.63;;;;;;;;;;723482;189;917725;-70
2021/12/14 13:22:46;;;;;;;209.67;56.97;;;;;;;;;;739085;189;632140;-70
2021/12/14 13:25:12;;;;;;;203.20;60.90;;;;;;;;;;732575;190;919329;-69
2021/12/14 13:27:37;;;;;;;174.93;56.80;;;;;;;;;;723138;189;918805;-69
2021/12/14 13:30:05;;;;;;;208.05;63.80;;;;;;;;;;729791;189;919395;-69
2021/12/14 13:32:30;;;;;;;233.40;63.60;;;;;;;;;;735764;189;645361;-70
2021/12/14 13:34:58;;;;;;;202.87;65.60;;;;;;;;;;735818;189;919091;-69
2021/12/14 13:37:23;;;;;;;203.17;62.60;;;;;;;;;;726242;189;918049;-70
2021/12/14 13:39:49;;;;;;;188.10;61.97;;;;;;;;;;736161;189;919202;-69
2021/12/14 13:42:15;;;;;;;197.97;72.10;;;;;;;;;;735129;189;919025;-69
2021/12/14 13:44:42;;;;;;;200.30;74.63;;;;;;;;;;720787;189;919150;-69
2021/12/14 13:47:08;;;;;;;179.00;70.93;;;;;;;;;;721368;190;920537;-69
2021/12/14 13:49:34;;;;;;;176.27;61.70;;;;;;;;;;725157;191;918636;-70
2021/12/14 13:51:59;;;;;;;174.50;68.68;;;;;;;;;;724556;190;918849;-69
2021/12/14 13:54:25;;;;;;;208.60;71.23;;;;;;;;;;721605;190;919537;-68
2021/12/14 13:56:52;;;;;;;162.40;66.57;;;;;;;;;;729598;192;919063;-68
2021/12/14 13:59:17;;;;;;;155.50;62.60;;;;;;;;;;723169;190;918116;-68
2021/12/14 14:01:44;;;;;;;213.60;75.87;;;;;;;;;;726927;189;919048;-69
2021/12/14 14:04:09;;;;;;;213.50;77.57;;;;;;;;;;725550;189;918985;-69
2021/12/14 14:06:36;;;;;;;203.50;74.40;;;;;;;;;;725509;189;929348;-69
2021/12/14 14:09:01;;;;;;;237.63;77.00;;;;;;;;;;729380;190;930067;-68
2021/12/14 14:11:27;;;;;;;211.93;87.83;;;;;;;;;;719114;189;919206;-69
2021/12/14 14:13:53;;;;;;;221.17;77.03;;;;;;;;;;731664;189;916375;-70
2021/12/14 14:16:19;;;;;;;275.98;73.18;;;;;;;;;;710339;193;917773;-68
2021/12/14 14:18:45;;;;;;;288.23;80.20;;;;;;;;;;728042;189;919124;-68
2021/12/14 14:21:11;;;;;;;236.97;74.00;;;;;;;;;;731949;189;635387;-69
2021/12/14 14:23:42;;;;;;;281.30;79.20;;;;;;;;;;734224;189;919019;-69
2021/12/14 14:26:08;;;;;;;300.87;80.33;;;;;;;;;;727125;189;1021658;-69
2021/12/14 14:28:35;;;;;;;304.20;81.37;;;;;;;;;;729041;189;919398;-68